Time;durP1;ratioP1;P1;durP2;ratioP2;P2;SDS_P1;SDS_P2;PMS_P1;PMS_P2;Temp;Humidity;BMP_temperature;BMP_pressure;BME280_temperature;BME280_humidity;BME280_pressure;Samples;Min_cycle;Max_cycle;Signal;HPM_P1;HPM_P2
2022/11/07 00:02:23;;;;;;;3.53;2.63;;;9.60;99.90;;;;;;5084363;28;20194;-46
2022/11/07 00:04:51;;;;;;;2.90;2.63;;;9.60;99.90;;;;;;5085237;28;20226;-49
2022/11/07 00:07:17;;;;;;;3.17;2.07;;;9.60;99.90;;;;;;5083256;28;20197;-47
2022/11/07 00:09:44;;;;;;;3.57;2.20;;;9.60;99.90;;;;;;5082508;28;20205;-47
2022/11/07 00:12:11;;;;;;;2.97;2.10;;;9.70;99.90;;;;;;5068340;28;20198;-45
2022/11/07 00:14:37;;;;;;;2.53;2.33;;;9.70;99.90;;;;;;5080647;28;20229;-47
2022/11/07 00:17:04;;;;;;;4.27;2.60;;;9.70;99.90;;;;;;5083192;28;20240;-50
2022/11/07 00:19:31;;;;;;;2.53;2.33;;;9.70;99.90;;;;;;5085240;28;20198;-47
2022/11/07 00:21:59;;;;;;;3.77;2.30;;;9.80;99.90;;;;;;5084442;28;20221;-45
2022/11/07 00:24:25;;;;;;;2.53;2.33;;;9.80;99.90;;;;;;5083057;28;20304;-48
2022/11/07 00:26:52;;;;;;;4.23;2.40;;;9.90;99.90;;;;;;5082141;28;20209;-47
2022/11/07 00:29:20;;;;;;;3.97;2.23;;;9.90;99.90;;;;;;5073543;28;20204;-48
2022/11/07 00:31:47;;;;;;;3.83;2.10;;;9.90;99.90;;;;;;5080660;28;20202;-44
2022/11/07 00:34:14;;;;;;;3.23;2.83;;;10.00;99.90;;;;;;5078578;28;20438;-47
2022/11/07 00:36:41;;;;;;;2.67;2.47;;;9.90;99.90;;;;;;5085701;28;20202;-47
2022/11/07 00:39:10;;;;;;;2.77;2.47;;;10.00;99.90;;;;;;5082040;28;20197;-47
2022/11/07 00:41:37;;;;;;;3.73;2.67;;;10.00;99.90;;;;;;5085768;28;20209;-44
2022/11/07 00:44:04;;;;;;;2.70;2.50;;;10.00;99.90;;;;;;5068195;28;20222;-46
2022/11/07 00:46:30;;;;;;;3.40;3.10;;;10.10;99.90;;;;;;5079690;28;20221;-45
2022/11/07 00:48:57;;;;;;;4.40;2.83;;;10.10;99.90;;;;;;5083813;28;20792;-48
2022/11/07 00:51:26;;;;;;;5.93;3.00;;;10.10;99.90;;;;;;5083568;28;20197;-47
2022/11/07 00:53:53;;;;;;;3.70;3.10;;;10.10;99.90;;;;;;5083736;28;20217;-47
2022/11/07 00:56:22;;;;;;;2.53;2.43;;;10.10;99.90;;;;;;5082584;28;20197;-45
2022/11/07 00:58:52;;;;;;;3.57;2.97;;;10.10;99.90;;;;;;5072003;28;20564;-50
2022/11/07 01:01:21;;;;;;;4.00;2.87;;;10.10;99.90;;;;;;5077248;28;20205;-45
2022/11/07 01:06:35;;;;;;;4.07;3.37;;;10.20;99.90;;;;;;5084871;28;20210;-47
2022/11/07 01:09:02;;;;;;;3.60;2.80;;;10.20;99.90;;;;;;5082468;28;20198;-47
2022/11/07 01:11:30;;;;;;;3.63;2.40;;;10.20;99.90;;;;;;5084272;28;20213;-44
2022/11/07 01:14:00;;;;;;;3.60;2.60;;;10.20;99.90;;;;;;5069573;28;20231;-51
2022/11/07 01:16:28;;;;;;;2.40;2.10;;;10.30;99.90;;;;;;5079011;28;20198;-46
2022/11/07 01:18:55;;;;;;;3.30;2.87;;;10.20;99.90;;;;;;5077280;28;20201;-46
2022/11/07 01:21:22;;;;;;;2.43;2.20;;;10.30;99.90;;;;;;5074750;28;20190;-48
2022/11/07 01:23:49;;;;;;;4.23;2.50;;;10.30;99.90;;;;;;5077251;28;20237;-46
2022/11/07 01:26:17;;;;;;;4.03;2.37;;;10.30;99.90;;;;;;5074235;28;20210;-45
2022/11/07 01:28:45;;;;;;;2.43;2.17;;;10.30;99.90;;;;;;5084121;28;20276;-47
2022/11/07 01:31:14;;;;;;;2.60;2.40;;;10.40;99.90;;;;;;5067051;28;20294;-47
2022/11/07 01:33:41;;;;;;;4.77;2.30;;;10.30;99.90;;;;;;5073948;28;20226;-46
2022/11/07 01:36:11;;;;;;;3.00;2.27;;;10.40;99.90;;;;;;5080585;28;20211;-45
2022/11/07 01:38:38;;;;;;;3.93;2.33;;;10.40;99.90;;;;;;5084711;28;20205;-46
2022/11/07 01:41:21;;;;;;;6.50;2.57;;;10.40;99.90;;;;;;5078852;28;20642;-47
2022/11/07 01:43:52;;;;;;;2.57;2.20;;;10.40;99.90;;;;;;5083283;28;20220;-48
2022/11/07 01:46:20;;;;;;;2.50;2.30;;;10.40;99.90;;;;;;5072356;28;20237;-48
2022/11/07 01:48:52;;;;;;;2.60;2.40;;;10.40;99.90;;;;;;5079838;28;20212;-44
2022/11/07 01:51:21;;;;;;;3.20;2.60;;;10.30;99.90;;;;;;5081141;28;20194;-45
2022/11/07 01:53:48;;;;;;;4.23;2.40;;;10.40;99.90;;;;;;5083554;28;20218;-45
2022/11/07 01:56:17;;;;;;;2.73;2.50;;;10.40;99.90;;;;;;5080519;28;20197;-44
2022/11/07 01:58:45;;;;;;;2.87;2.20;;;10.30;99.90;;;;;;5084351;28;20206;-46
2022/11/07 02:01:14;;;;;;;7.00;2.60;;;10.40;99.90;;;;;;5065697;28;20198;-44
2022/11/07 02:03:40;;;;;;;4.07;2.77;;;10.40;99.90;;;;;;5078864;28;20257;-45
2022/11/07 02:06:13;;;;;;;4.93;3.00;;;10.40;99.90;;;;;;5080235;28;20229;-49
2022/11/07 02:08:42;;;;;;;3.67;2.47;;;10.40;99.90;;;;;;5084387;28;20195;-46
2022/11/07 02:11:11;;;;;;;3.00;2.70;;;10.40;99.90;;;;;;5080344;28;20654;-49
2022/11/07 02:13:37;;;;;;;5.13;2.50;;;10.40;99.90;;;;;;5083340;28;20245;-47
2022/11/07 02:16:05;;;;;;;3.93;2.40;;;10.50;99.90;;;;;;5066752;28;20577;-49
2022/11/07 02:18:36;;;;;;;2.57;2.37;;;10.50;99.90;;;;;;5083628;28;20194;-45
2022/11/07 02:21:11;;;;;;;3.50;2.47;;;10.50;99.90;;;;;;5076443;28;20198;-49
2022/11/07 02:23:45;;;;;;;2.90;2.20;;;10.60;99.90;;;;;;5082559;28;20232;-45
2022/11/07 02:26:13;;;;;;;2.23;2.07;;;10.60;99.90;;;;;;5078083;28;20217;-46
2022/11/07 02:28:42;;;;;;;6.63;2.43;;;10.60;99.90;;;;;;5083625;28;20209;-47
2022/11/07 02:31:08;;;;;;;4.83;2.57;;;10.60;99.90;;;;;;5066669;28;20210;-48
2022/11/07 02:33:35;;;;;;;3.97;2.33;;;10.60;99.90;;;;;;5081475;28;20228;-47
2022/11/07 02:36:02;;;;;;;2.90;2.60;;;10.60;99.90;;;;;;5077122;28;20201;-50
2022/11/07 02:38:31;;;;;;;3.83;2.60;;;10.60;99.90;;;;;;5082726;28;20204;-45
2022/11/07 02:41:01;;;;;;;2.90;2.40;;;10.70;99.90;;;;;;5081753;28;20263;-47
2022/11/07 02:43:33;;;;;;;2.70;1.90;;;10.70;99.90;;;;;;5081588;28;20961;-45
2022/11/07 02:46:04;;;;;;;4.50;2.30;;;10.70;99.90;;;;;;5068280;28;20294;-47
2022/11/07 02:48:31;;;;;;;4.07;2.07;;;10.70;99.90;;;;;;5082850;28;20201;-45
2022/11/07 02:50:58;;;;;;;2.87;2.37;;;10.70;99.90;;;;;;5079606;28;20197;-46
2022/11/07 02:53:25;;;;;;;2.27;2.07;;;10.80;99.90;;;;;;5078604;28;20288;-46
2022/11/07 02:55:52;;;;;;;2.67;2.20;;;10.80;99.90;;;;;;5082989;28;20194;-48
2022/11/07 02:58:18;;;;;;;3.27;2.37;;;10.80;99.90;;;;;;5080292;28;20193;-44
2022/11/07 03:00:46;;;;;;;2.83;2.27;;;10.80;99.90;;;;;;5083299;28;20205;-45
2022/11/07 03:03:13;;;;;;;3.17;2.07;;;10.80;99.90;;;;;;5065384;28;20841;-46
2022/11/07 03:05:40;;;;;;;4.37;2.60;;;10.90;99.90;;;;;;5083160;28;20717;-45
2022/11/07 03:08:06;;;;;;;2.93;2.40;;;10.90;99.90;;;;;;5075454;28;20210;-52
2022/11/07 03:10:33;;;;;;;2.40;1.70;;;10.90;99.90;;;;;;5083579;28;20204;-48
2022/11/07 03:13:00;;;;;;;3.17;2.40;;;10.90;99.90;;;;;;5080857;28;20205;-47
2022/11/07 03:15:27;;;;;;;3.10;2.07;;;11.00;99.90;;;;;;5081482;28;20852;-46
2022/11/07 03:17:57;;;;;;;3.87;2.37;;;11.00;99.90;;;;;;5068638;28;20206;-45
2022/11/07 03:20:24;;;;;;;3.53;2.03;;;11.00;99.90;;;;;;5081291;28;20290;-45
2022/11/07 03:22:51;;;;;;;4.47;2.37;;;11.00;99.90;;;;;;5078832;28;20198;-47
2022/11/07 03:25:18;;;;;;;4.63;2.20;;;11.00;99.90;;;;;;5079169;28;20233;-45
2022/11/07 03:27:49;;;;;;;3.30;2.20;;;11.00;99.90;;;;;;5083410;28;20216;-45
2022/11/07 03:30:16;;;;;;;3.27;2.10;;;11.00;99.90;;;;;;5079473;28;20198;-48
2022/11/07 03:32:43;;;;;;;7.03;2.40;;;11.00;99.90;;;;;;5070621;28;20213;-46
2022/11/07 03:35:11;;;;;;;5.33;2.27;;;11.10;99.90;;;;;;5080529;28;20934;-44
2022/11/07 03:37:38;;;;;;;3.87;2.40;;;11.10;99.90;;;;;;5083238;28;20221;-45
2022/11/07 03:40:05;;;;;;;3.37;2.27;;;11.10;99.90;;;;;;5083902;28;20198;-47
2022/11/07 03:42:38;;;;;;;3.30;2.43;;;11.20;99.90;;;;;;5086513;28;20289;-47
2022/11/07 03:45:06;;;;;;;3.73;1.80;;;11.10;99.90;;;;;;5082841;28;20275;-46
2022/11/07 03:47:34;;;;;;;3.33;2.20;;;11.10;99.90;;;;;;5074038;28;20221;-45
2022/11/07 03:50:00;;;;;;;2.27;2.17;;;11.10;99.90;;;;;;5084178;28;20194;-50
2022/11/07 03:52:28;;;;;;;1.97;1.83;;;11.10;99.90;;;;;;5080658;28;20217;-45
2022/11/07 03:54:55;;;;;;;4.57;2.03;;;11.20;99.90;;;;;;5084872;28;20765;-46
2022/11/07 03:57:21;;;;;;;3.07;2.20;;;11.10;99.90;;;;;;5084012;28;20185;-45
2022/11/07 03:59:48;;;;;;;2.90;2.10;;;11.20;99.90;;;;;;5086708;28;20201;-45
2022/11/07 04:02:15;;;;;;;8.40;2.27;;;11.20;99.90;;;;;;5082160;28;20198;-44
2022/11/07 04:04:41;;;;;;;2.67;2.23;;;11.20;99.90;;;;;;5072611;28;20218;-43
2022/11/07 04:07:09;;;;;;;5.00;2.10;;;11.20;99.90;;;;;;5078226;28;20230;-47
2022/11/07 04:09:37;;;;;;;5.63;2.33;;;11.20;99.90;;;;;;5083918;28;20205;-46
2022/11/07 04:17:32;;;;;;;2.60;2.30;;;11.20;99.90;;;;;;5086067;28;20190;-47
2022/11/07 04:19:59;;;;;;;4.97;2.20;;;11.20;99.90;;;;;;5071637;28;20202;-47
2022/11/07 04:22:26;;;;;;;2.90;2.40;;;11.10;99.90;;;;;;5079990;28;20210;-45
2022/11/07 04:24:54;;;;;;;5.13;2.10;;;11.20;99.90;;;;;;5084478;28;20722;-50
2022/11/07 04:30:18;;;;;;;4.93;2.53;;;11.20;99.90;;;;;;5082897;28;20206;-47
2022/11/07 04:32:46;;;;;;;6.37;2.50;;;11.30;99.90;;;;;;5084956;28;20217;-45
2022/11/07 04:35:13;;;;;;;2.67;1.80;;;11.30;99.90;;;;;;5067876;28;20225;-46
2022/11/07 04:37:39;;;;;;;3.00;2.00;;;11.30;99.90;;;;;;5081389;28;20194;-49
2022/11/07 04:40:09;;;;;;;2.37;1.93;;;11.30;99.90;;;;;;5082472;28;20202;-49
2022/11/07 04:42:36;;;;;;;3.53;1.90;;;11.30;99.90;;;;;;5085787;28;20198;-47
2022/11/07 04:45:04;;;;;;;3.13;2.10;;;11.30;99.90;;;;;;5081731;28;20229;-46
2022/11/07 04:47:31;;;;;;;4.70;2.00;;;11.30;99.90;;;;;;5084826;28;20691;-46
2022/11/07 04:49:57;;;;;;;4.17;2.27;;;11.40;99.90;;;;;;5083719;28;20576;-45
2022/11/07 04:52:25;;;;;;;5.30;2.70;;;11.40;99.90;;;;;;5071240;28;20206;-45
2022/11/07 04:54:52;;;;;;;5.87;2.57;;;11.40;99.90;;;;;;5079590;28;20224;-47
2022/11/07 04:57:20;;;;;;;5.97;2.43;;;11.40;99.90;;;;;;5082696;28;20202;-45
2022/11/07 04:59:47;;;;;;;4.47;2.07;;;11.40;99.90;;;;;;5085333;28;20202;-45
2022/11/07 05:02:14;;;;;;;3.30;2.30;;;11.40;99.90;;;;;;5078865;28;20224;-50
2022/11/07 05:04:41;;;;;;;4.07;2.20;;;11.40;99.90;;;;;;5084089;28;20218;-45
2022/11/07 05:07:09;;;;;;;5.07;2.80;;;11.50;99.90;;;;;;5068264;28;20213;-46
2022/11/07 05:09:36;;;;;;;3.37;2.30;;;11.40;99.90;;;;;;5081180;28;20213;-44
2022/11/07 05:12:04;;;;;;;4.67;2.33;;;11.40;99.90;;;;;;5082054;28;20222;-44
2022/11/07 05:14:32;;;;;;;3.73;2.53;;;11.40;99.90;;;;;;5080856;28;20218;-45
2022/11/07 05:16:59;;;;;;;4.87;2.50;;;11.40;99.90;;;;;;5082824;28;20276;-44
2022/11/07 05:19:26;;;;;;;7.67;3.00;;;11.40;99.90;;;;;;5079675;28;20190;-43
2022/11/07 05:24:34;;;;;;;6.50;2.97;;;11.40;99.90;;;;;;5066351;28;20256;-44
2022/11/07 05:27:01;;;;;;;6.17;2.40;;;11.40;99.90;;;;;;5082521;28;20218;-47
2022/11/07 05:29:28;;;;;;;3.93;2.27;;;11.40;99.90;;;;;;5080935;28;20190;-46
2022/11/07 05:31:57;;;;;;;5.67;3.13;;;11.40;99.90;;;;;;5083440;28;20569;-45
2022/11/07 05:34:24;;;;;;;6.33;2.87;;;11.40;99.90;;;;;;5074085;28;20225;-44
2022/11/07 05:36:51;;;;;;;3.07;2.20;;;11.40;99.90;;;;;;5069325;28;20678;-48
2022/11/07 05:39:18;;;;;;;4.77;2.70;;;11.40;99.90;;;;;;5079457;28;20186;-44
2022/11/07 05:41:46;;;;;;;7.10;2.97;;;11.40;99.90;;;;;;5075542;28;20198;-44
2022/11/07 05:44:13;;;;;;;6.20;3.33;;;11.40;99.90;;;;;;5073988;28;20225;-44
2022/11/07 05:46:40;;;;;;;10.10;4.07;;;11.40;99.90;;;;;;5075521;28;20214;-49
2022/11/07 05:49:08;;;;;;;6.50;2.80;;;11.30;99.90;;;;;;5069484;28;20197;-47
2022/11/07 05:51:35;;;;;;;3.93;2.70;;;11.30;99.90;;;;;;5073845;28;20217;-45
2022/11/07 05:54:01;;;;;;;4.87;2.70;;;11.20;99.90;;;;;;5065461;28;20984;-48
2022/11/07 05:56:29;;;;;;;6.03;2.90;;;11.20;99.90;;;;;;5071280;28;20267;-46
2022/11/07 05:58:55;;;;;;;4.67;2.43;;;11.20;99.90;;;;;;5077501;28;20201;-44
2022/11/07 06:01:22;;;;;;;8.67;3.33;;;11.10;99.90;;;;;;5078125;28;20202;-45
2022/11/07 06:03:49;;;;;;;5.13;3.00;;;11.10;99.90;;;;;;5069340;28;20267;-45
2022/11/07 06:06:17;;;;;;;6.93;3.10;;;11.10;99.90;;;;;;5079794;28;20198;-45
2022/11/07 06:08:44;;;;;;;6.40;3.20;;;11.10;99.90;;;;;;5067491;28;20190;-45
2022/11/07 06:11:11;;;;;;;6.87;3.40;;;11.00;99.90;;;;;;5079339;28;20202;-48
2022/11/07 06:13:38;;;;;;;6.90;5.23;;;11.00;99.90;;;;;;5079805;28;20738;-47
2022/11/07 06:16:06;;;;;;;5.27;2.80;;;11.00;99.90;;;;;;5083238;28;20202;-44
2022/11/07 06:18:36;;;;;;;7.53;3.67;;;11.00;99.90;;;;;;5081858;28;20566;-46
2022/11/07 06:21:03;;;;;;;4.10;2.80;;;11.00;99.90;;;;;;5079426;28;20213;-50
2022/11/07 06:23:32;;;;;;;6.13;2.50;;;11.00;99.90;;;;;;5059470;28;21228;-49
2022/11/07 06:25:59;;;;;;;8.00;3.00;;;11.00;99.90;;;;;;5068400;28;22618;-44
2022/11/07 06:28:25;;;;;;;10.50;3.37;;;11.00;99.90;;;;;;5073811;28;20228;-47
2022/11/07 06:30:52;;;;;;;4.93;2.83;;;11.00;99.90;;;;;;5070427;28;20210;-49
2022/11/07 06:33:20;;;;;;;7.53;3.10;;;11.00;99.90;;;;;;5070120;28;20199;-44
2022/11/07 06:35:47;;;;;;;4.10;3.17;;;11.00;99.90;;;;;;5067978;28;20190;-48
2022/11/07 06:38:15;;;;;;;6.73;3.30;;;11.00;99.90;;;;;;5072926;28;20224;-44
2022/11/07 06:40:43;;;;;;;5.03;3.03;;;11.00;99.90;;;;;;5067049;28;20388;-49
2022/11/07 06:43:14;;;;;;;5.33;2.90;;;11.10;99.90;;;;;;5073508;28;20221;-48
2022/11/07 06:45:41;;;;;;;7.63;3.03;;;11.00;99.90;;;;;;5076586;28;20573;-45
2022/11/07 06:48:09;;;;;;;7.10;3.23;;;11.00;99.90;;;;;;5078335;28;20564;-45
2022/11/07 06:50:37;;;;;;;4.77;3.53;;;11.00;99.90;;;;;;5076076;28;20202;-49
2022/11/07 06:53:05;;;;;;;6.20;3.33;;;11.00;99.90;;;;;;5076029;28;20236;-45
2022/11/07 06:55:33;;;;;;;5.93;3.77;;;11.00;99.90;;;;;;5060036;28;20217;-46
2022/11/07 06:58:02;;;;;;;5.30;2.90;;;11.00;99.90;;;;;;5076023;28;20198;-44
2022/11/07 07:00:30;;;;;;;9.67;4.90;;;11.00;99.90;;;;;;5078178;28;20422;-46
2022/11/07 07:02:58;;;;;;;4.73;2.83;;;11.00;99.90;;;;;;5070986;28;20197;-44
2022/11/07 07:05:24;;;;;;;9.03;3.20;;;11.00;99.90;;;;;;5080471;28;20226;-46
2022/11/07 07:07:51;;;;;;;12.20;3.63;;;11.00;99.90;;;;;;5078827;28;20297;-47
2022/11/07 07:10:18;;;;;;;8.23;3.03;;;11.00;99.90;;;;;;5075409;28;20212;-43
2022/11/07 07:12:45;;;;;;;9.33;2.93;;;11.00;99.90;;;;;;5082826;28;20190;-46
2022/11/07 07:15:14;;;;;;;5.07;2.90;;;11.10;99.90;;;;;;5075391;28;20229;-46
2022/11/07 07:17:41;;;;;;;6.20;2.93;;;11.10;99.90;;;;;;5084593;28;20438;-44
2022/11/07 07:20:09;;;;;;;4.17;2.63;;;11.10;99.90;;;;;;5084559;28;20209;-48
2022/11/07 07:22:36;;;;;;;11.40;3.50;;;11.10;99.90;;;;;;5083407;28;20201;-45
2022/11/07 07:25:02;;;;;;;5.43;3.40;;;11.20;99.90;;;;;;5084803;28;20217;-45
2022/11/07 07:27:29;;;;;;;5.87;3.10;;;11.20;99.90;;;;;;5071969;28;20293;-45
2022/11/07 07:29:56;;;;;;;8.13;3.33;;;11.30;99.90;;;;;;5081299;28;20213;-45
2022/11/07 07:32:24;;;;;;;5.43;3.20;;;11.30;99.90;;;;;;5081947;28;20820;-47
2022/11/07 07:34:51;;;;;;;6.77;3.40;;;11.30;99.90;;;;;;5086252;28;20257;-46
2022/11/07 07:37:19;;;;;;;8.03;2.80;;;11.30;99.90;;;;;;5083976;28;20190;-49
2022/11/07 07:39:46;;;;;;;5.83;3.17;;;11.30;99.90;;;;;;5086704;28;20204;-46
2022/11/07 07:42:12;;;;;;;10.73;4.20;;;11.30;99.90;;;;;;5072991;28;20755;-50
2022/11/07 07:44:44;;;;;;;6.27;3.13;;;11.40;99.90;;;;;;5079691;28;20233;-44
2022/11/07 07:47:11;;;;;;;7.87;3.23;;;11.40;99.90;;;;;;5079442;28;20202;-45
2022/11/07 07:49:39;;;;;;;6.80;2.77;;;11.40;99.90;;;;;;5080401;28;20186;-46
2022/11/07 07:52:06;;;;;;;4.73;2.80;;;11.50;99.90;;;;;;5076082;28;20626;-47
2022/11/07 07:54:32;;;;;;;5.57;2.57;;;11.50;99.90;;;;;;5075993;28;20217;-44
2022/11/07 07:57:00;;;;;;;5.60;3.10;;;11.60;99.90;;;;;;5067149;28;20206;-49
2022/11/07 07:59:26;;;;;;;7.20;4.20;;;11.60;99.90;;;;;;5076735;28;20194;-45
2022/11/07 08:01:53;;;;;;;7.30;3.63;;;11.60;99.90;;;;;;5085821;28;20198;-46
2022/11/07 08:04:21;;;;;;;6.43;3.57;;;11.70;99.90;;;;;;5078234;28;20214;-44
2022/11/07 08:06:49;;;;;;;7.60;3.63;;;11.70;99.90;;;;;;5085581;28;20209;-47
2022/11/07 08:09:16;;;;;;;9.07;3.20;;;11.70;99.90;;;;;;5075726;28;20302;-44
2022/11/07 08:11:42;;;;;;;3.60;2.33;;;11.80;99.90;;;;;;5080069;28;20218;-47
2022/11/07 08:14:10;;;;;;;10.33;3.43;;;11.80;99.90;;;;;;5065678;28;20248;-50
2022/11/07 08:16:37;;;;;;;7.23;3.67;;;11.80;99.90;;;;;;5080551;28;20206;-46
2022/11/07 08:19:04;;;;;;;4.63;3.53;;;11.80;99.90;;;;;;5083512;28;20748;-48
2022/11/07 08:21:30;;;;;;;5.93;3.37;;;11.90;99.90;;;;;;5077873;28;20206;-45
2022/11/07 08:23:59;;;;;;;6.80;3.00;;;11.90;99.90;;;;;;5081090;28;20312;-50
2022/11/07 08:26:26;;;;;;;7.27;3.30;;;11.90;99.90;;;;;;5079911;28;20260;-45
2022/11/07 08:28:53;;;;;;;5.20;3.07;;;11.90;99.90;;;;;;5066664;28;20737;-47
2022/11/07 08:31:20;;;;;;;4.80;2.50;;;12.00;99.90;;;;;;5070673;28;20961;-45
2022/11/07 08:33:47;;;;;;;4.23;2.43;;;12.00;99.90;;;;;;5082380;28;20297;-47
2022/11/07 08:36:14;;;;;;;6.30;2.80;;;12.00;99.90;;;;;;5075063;28;20307;-45
2022/11/07 08:38:41;;;;;;;6.77;4.10;;;12.10;99.90;;;;;;5075216;28;20194;-45
2022/11/07 08:41:09;;;;;;;7.47;3.07;;;12.10;99.90;;;;;;5070145;28;20194;-46
2022/11/07 08:43:35;;;;;;;9.70;3.27;;;12.10;99.90;;;;;;5077024;28;20221;-44
2022/11/07 08:46:02;;;;;;;10.07;3.93;;;12.10;99.90;;;;;;5062821;28;20225;-46
2022/11/07 08:48:28;;;;;;;9.80;3.23;;;12.20;99.90;;;;;;5073927;28;20206;-46
2022/11/07 08:50:56;;;;;;;3.53;2.50;;;12.20;99.90;;;;;;5073220;28;20206;-47
2022/11/07 08:53:24;;;;;;;6.53;2.70;;;12.20;99.90;;;;;;5077011;28;20260;-44
2022/11/07 08:55:51;;;;;;;8.80;3.50;;;12.30;99.90;;;;;;5079761;28;20202;-47
2022/11/07 08:58:19;;;;;;;6.33;3.70;;;12.30;99.90;;;;;;5073230;28;21362;-49
2022/11/07 09:00:46;;;;;;;4.50;2.67;;;12.40;99.90;;;;;;5068167;28;20686;-48
2022/11/07 09:03:13;;;;;;;4.60;2.80;;;12.40;99.90;;;;;;5084640;28;20210;-46
2022/11/07 09:05:40;;;;;;;3.17;2.80;;;12.40;99.90;;;;;;5077884;28;20251;-44
2022/11/07 09:08:08;;;;;;;7.93;3.37;;;12.40;99.90;;;;;;5076244;28;20219;-44
2022/11/07 09:10:35;;;;;;;9.40;2.73;;;12.40;99.90;;;;;;5081437;28;20201;-46
2022/11/07 09:13:01;;;;;;;6.17;2.57;;;12.40;99.90;;;;;;5072217;28;20205;-47
2022/11/07 09:15:30;;;;;;;5.07;2.27;;;12.40;99.90;;;;;;5057626;28;20213;-47
2022/11/07 09:18:02;;;;;;;6.23;3.20;;;12.50;99.90;;;;;;5074463;28;20222;-48
2022/11/07 09:20:29;;;;;;;5.27;3.87;;;12.50;99.90;;;;;;5075022;28;20221;-47
2022/11/07 09:22:56;;;;;;;6.53;3.47;;;12.60;99.90;;;;;;5070645;28;20328;-46
2022/11/07 09:25:23;;;;;;;10.80;3.63;;;12.70;99.90;;;;;;5076544;28;20202;-46
2022/11/07 09:27:50;;;;;;;6.70;3.10;;;12.70;99.90;;;;;;5072651;28;20813;-51
2022/11/07 09:30:17;;;;;;;8.47;2.90;;;12.80;99.90;;;;;;5064019;28;20237;-46
2022/11/07 09:32:46;;;;;;;7.30;3.27;;;12.80;99.90;;;;;;5071427;28;20194;-45
2022/11/07 09:35:13;;;;;;;4.23;2.50;;;12.90;99.90;;;;;;5067752;28;20978;-45
2022/11/07 09:37:41;;;;;;;5.60;2.63;;;12.90;99.90;;;;;;5077911;28;20204;-47
2022/11/07 09:40:22;;;;;;;6.53;2.37;;;12.90;99.90;;;;;;5072789;28;20198;-48
2022/11/07 09:42:59;;;;;;;5.50;2.27;;;12.90;99.90;;;;;;5071148;28;20300;-47
2022/11/07 09:45:29;;;;;;;4.47;2.20;;;12.90;99.90;;;;;;5062511;28;20221;-46
2022/11/07 09:48:03;;;;;;;6.47;2.20;;;13.00;99.90;;;;;;5073029;28;20221;-49
2022/11/07 09:50:36;;;;;;;6.03;2.13;;;13.10;99.90;;;;;;5071573;28;20206;-47
2022/11/07 09:53:08;;;;;;;7.33;2.53;;;13.10;99.90;;;;;;5075622;28;20285;-47
2022/11/07 09:55:37;;;;;;;5.33;2.70;;;13.20;99.90;;;;;;5075100;28;20787;-48
2022/11/07 09:58:12;;;;;;;4.83;2.53;;;13.20;99.90;;;;;;5072510;28;20194;-48
2022/11/07 10:00:40;;;;;;;4.70;2.40;;;13.20;99.90;;;;;;5070410;28;20293;-45
2022/11/07 10:03:10;;;;;;;8.00;2.80;;;13.30;99.90;;;;;;5056683;28;20202;-47
2022/11/07 10:05:45;;;;;;;7.63;2.53;;;13.30;99.90;;;;;;5073438;28;20202;-45
2022/11/07 10:08:17;;;;;;;3.70;2.07;;;13.30;99.90;;;;;;5069174;28;20910;-44
2022/11/07 10:10:50;;;;;;;5.73;2.87;;;13.30;99.90;;;;;;5073765;28;20562;-45
2022/11/07 10:13:44;;;;;;;5.20;2.17;;;13.40;99.90;;;;;;5073069;28;20202;-46
2022/11/07 10:16:17;;;;;;;5.43;2.40;;;13.40;99.90;;;;;;5068221;28;20186;-47
2022/11/07 10:18:59;;;;;;;4.50;2.10;;;13.40;99.90;;;;;;5066315;28;20280;-45
2022/11/07 10:21:32;;;;;;;6.37;2.57;;;13.40;99.90;;;;;;5074200;28;20203;-46
2022/11/07 10:24:14;;;;;;;9.00;3.73;;;13.40;99.90;;;;;;5071750;28;20718;-47
2022/11/07 10:26:44;;;;;;;10.70;2.67;;;13.40;99.90;;;;;;5071637;28;20573;-45
2022/11/07 10:29:14;;;;;;;6.17;3.30;;;13.30;99.90;;;;;;5070136;28;20214;-45
2022/11/07 10:31:44;;;;;;;9.40;3.50;;;13.30;99.90;;;;;;5075161;28;20833;-48
2022/11/07 10:34:19;;;;;;;8.37;3.57;;;13.30;99.90;;;;;;5058242;28;20241;-45
2022/11/07 10:36:47;;;;;;;9.97;3.60;;;13.30;99.90;;;;;;5075142;28;20202;-46
2022/11/07 10:39:16;;;;;;;7.37;2.67;;;13.30;99.90;;;;;;5072342;28;20178;-45
2022/11/07 10:41:51;;;;;;;5.23;2.93;;;13.30;99.90;;;;;;5074552;28;20204;-47
2022/11/07 10:44:24;;;;;;;6.03;3.00;;;13.30;99.90;;;;;;5069513;28;20217;-46
2022/11/07 10:46:51;;;;;;;10.03;4.07;;;13.30;99.90;;;;;;5071401;28;20687;-47
2022/11/07 10:49:21;;;;;;;6.40;2.70;;;13.40;99.90;;;;;;5056017;28;20233;-45
2022/11/07 10:51:48;;;;;;;12.43;3.43;;;13.50;99.90;;;;;;5060530;28;20673;-48
2022/11/07 10:54:27;;;;;;;7.57;3.10;;;13.50;99.90;;;;;;5069105;28;20210;-48
2022/11/07 10:57:00;;;;;;;9.17;3.20;;;13.50;99.90;;;;;;5069614;28;20198;-45
2022/11/07 10:59:29;;;;;;;7.30;3.30;;;13.50;99.90;;;;;;5074891;28;20690;-45
2022/11/07 11:01:59;;;;;;;8.37;3.20;;;13.50;99.90;;;;;;5066542;28;20190;-47
2022/11/07 11:04:30;;;;;;;6.30;3.00;;;13.50;99.90;;;;;;5055625;28;20253;-47
2022/11/07 11:06:59;;;;;;;7.37;4.10;;;13.50;99.90;;;;;;5070317;28;20200;-47
2022/11/07 11:09:31;;;;;;;7.20;3.13;;;13.50;99.90;;;;;;5077310;28;20301;-47
2022/11/07 11:11:58;;;;;;;6.03;3.97;;;13.50;99.90;;;;;;5062282;28;20194;-51
2022/11/07 11:14:25;;;;;;;6.80;3.37;;;13.40;99.90;;;;;;5073568;28;20277;-51
2022/11/07 11:16:55;;;;;;;9.27;4.20;;;13.40;99.90;;;;;;5072037;28;20193;-49
2022/11/07 11:19:24;;;;;;;9.10;2.27;;;13.50;99.90;;;;;;5075725;28;20202;-50
2022/11/07 11:21:55;;;;;;;7.17;3.20;;;13.40;99.90;;;;;;5057662;28;20205;-47
2022/11/07 11:24:29;;;;;;;6.97;2.80;;;13.50;99.90;;;;;;5080808;28;20210;-48
2022/11/07 11:26:59;;;;;;;7.07;2.90;;;13.50;99.90;;;;;;5077347;28;20252;-47
2022/11/07 11:29:34;;;;;;;11.00;2.70;;;13.50;99.90;;;;;;5076626;28;20210;-45
2022/11/07 11:32:03;;;;;;;8.93;2.93;;;13.60;99.90;;;;;;5073907;28;20217;-45
2022/11/07 11:34:39;;;;;;;8.40;2.43;;;13.60;99.90;;;;;;5073335;28;20233;-46
2022/11/07 11:37:13;;;;;;;7.83;3.23;;;13.60;99.90;;;;;;5070150;28;20890;-48
2022/11/07 11:39:44;;;;;;;8.53;3.60;;;13.60;99.90;;;;;;5068677;28;20215;-46
2022/11/07 11:42:19;;;;;;;4.93;2.53;;;13.70;99.90;;;;;;5077331;28;20198;-47
2022/11/07 11:44:47;;;;;;;5.57;2.77;;;13.70;99.90;;;;;;5071321;28;20220;-47
2022/11/07 11:47:22;;;;;;;7.33;2.87;;;13.70;99.90;;;;;;5072708;28;20677;-47
2022/11/07 11:49:58;;;;;;;7.00;3.00;;;13.70;99.90;;;;;;5068631;28;20218;-47
2022/11/07 11:52:30;;;;;;;9.70;3.33;;;13.70;99.90;;;;;;5060629;28;20209;-47
2022/11/07 11:54:59;;;;;;;5.23;3.20;;;13.70;99.90;;;;;;5063735;28;20313;-46
2022/11/07 11:57:32;;;;;;;6.37;2.20;;;13.70;99.90;;;;;;5077090;28;20546;-46
2022/11/07 12:00:14;;;;;;;6.73;2.80;;;13.60;99.90;;;;;;5071871;28;20200;-46
2022/11/07 12:02:54;;;;;;;9.53;3.50;;;13.70;99.90;;;;;;5072224;28;20280;-46
2022/11/07 12:05:44;;;;;;;4.70;2.70;;;13.70;99.90;;;;;;5071137;28;20263;-46
2022/11/07 12:08:29;;;;;;;9.43;3.50;;;13.70;99.90;;;;;;5063018;28;20569;-45
2022/11/07 12:11:01;;;;;;;4.30;2.27;;;13.70;99.90;;;;;;5074221;28;20198;-45
2022/11/07 12:13:36;;;;;;;8.27;3.10;;;13.60;99.90;;;;;;5079808;28;20198;-49
2022/11/07 12:16:14;;;;;;;5.53;3.53;;;13.60;99.90;;;;;;5069410;28;20906;-48
2022/11/07 12:18:48;;;;;;;10.87;5.07;;;13.50;99.90;;;;;;5068885;28;20201;-50
2022/11/07 12:21:28;;;;;;;6.20;3.37;;;13.50;99.90;;;;;;5077427;28;20193;-48
2022/11/07 12:24:15;;;;;;;8.60;3.23;;;13.50;99.90;;;;;;5060696;28;20232;-47
2022/11/07 12:26:50;;;;;;;7.50;2.87;;;13.50;99.90;;;;;;5071489;28;20216;-48
2022/11/07 12:29:27;;;;;;;5.43;3.10;;;13.40;99.90;;;;;;5075536;28;20229;-49
2022/11/07 12:32:09;;;;;;;8.50;3.07;;;13.40;99.90;;;;;;5078519;28;20217;-45
2022/11/07 12:34:56;;;;;;;6.50;3.90;;;13.40;99.90;;;;;;5068190;28;20932;-50
2022/11/07 12:37:47;;;;;;;7.67;2.80;;;13.50;99.90;;;;;;5065922;28;20280;-45
2022/11/07 12:40:28;;;;;;;8.03;2.67;;;13.50;99.90;;;;;;5072709;28;20201;-47
2022/11/07 12:43:05;;;;;;;4.07;3.07;;;13.50;99.90;;;;;;5079907;28;20268;-45
2022/11/07 12:45:45;;;;;;;9.30;3.60;;;13.50;99.90;;;;;;5071531;28;20253;-47
2022/11/07 12:48:43;;;;;;;6.30;3.70;;;13.50;99.90;;;;;;5078452;28;20210;-45
2022/11/07 12:51:24;;;;;;;7.23;3.90;;;13.50;99.90;;;;;;5070340;28;20210;-47
2022/11/07 12:54:01;;;;;;;6.73;3.17;;;13.50;99.90;;;;;;5069782;28;20850;-46
2022/11/07 12:56:33;;;;;;;9.67;3.90;;;13.50;99.90;;;;;;5065989;28;20216;-45
2022/11/07 12:59:05;;;;;;;7.30;3.40;;;13.50;99.90;;;;;;5078674;28;20231;-45
2022/11/07 13:01:40;;;;;;;5.87;3.27;;;13.50;99.90;;;;;;5073475;28;20201;-46
2022/11/07 13:04:15;;;;;;;6.73;3.30;;;13.50;99.90;;;;;;5075462;28;20304;-48
2022/11/07 13:06:46;;;;;;;13.23;3.23;;;13.50;99.90;;;;;;5071798;28;20181;-49
2022/11/07 13:09:23;;;;;;;11.57;4.50;;;13.50;99.90;;;;;;5067218;28;20222;-47
2022/11/07 13:11:57;;;;;;;9.83;4.00;;;13.50;99.90;;;;;;5078562;28;20301;-50
2022/11/07 13:14:28;;;;;;;10.17;3.53;;;13.50;99.90;;;;;;5070041;28;20231;-44